METAR Data
IDs: Format: Raw Decoded Include TAF

Data at: 2031 UTC 21 Sep 2021

KLLQ 212023Z AUTO VRB03KT 10SM VCTS FEW027 SCT095 23/22 A3002 RMK AO2 LTG DSNT SE-W RAB00E09 TSE17 P0000 T02330222
KLLQ 211953Z AUTO VRB04KT 10SM TS FEW005 SCT060 BKN095 23/22 A3003 RMK AO2 LTG DSNT ALQDS RAB1857E33B36E47 SLP164 P0091 T02280217
KLLQ 211933Z AUTO 04004KT 10SM TS SCT018 BKN060 OVC100 23/22 A3002 RMK AO2 LTG DSNT ALQDS RAB1857E33 P0090 T02280217
KLLQ 211924Z AUTO 04004KT 3SM -TSRA BR BKN018 BKN035 OVC100 23/22 A3004 RMK AO2 LTG DSNT ALQDS RAB1857 P0090 T02280217
KLLQ 211920Z AUTO 06008KT 1SM TSRA BR BKN018 BKN037 OVC060 22/22 A3004 RMK AO2 LTG DSNT ALQDS RAB1857 P0089 T02220217
KLLQ 211911Z AUTO 01010G23KT 1/4SM +TSRA FG BKN010 BKN027 OVC042 23/22 A3005 RMK AO2 LTG DSNT N-SE RAB1857 P0074 T02280217
KLLQ 211907Z AUTO 33016G25KT 1/2SM +TSRA FG SCT013 BKN026 OVC110 23/22 A3006 RMK AO2 LTG DSNT ALQDS RAB1857 P0049 T02280217
KLLQ 211904Z AUTO 33012G25KT 1 1/2SM TSRA BR SCT016 BKN031 OVC110 24/22 A3006 RMK AO2 VIS 1/2V5 LTG DSNT ALQDS RAB1857 PRESRR P0018 T02390217
KLLQ 211853Z AUTO 15006KT 10SM TS FEW027 SCT049 BKN080 27/24 A3002 RMK AO2 LTG DSNT ALQDS RAB03E18 TSB50 SLP163 P0011 T02670244
KLLQ 211846Z AUTO 14007KT 10SM VCTS FEW027 SCT050 BKN100 27/24 A3002 RMK AO2 LTG DSNT ALQDS RAB03E18 P0011 T02720244
KLLQ 211837Z AUTO 12006KT 10SM FEW055 SCT075 27/26 A3002 RMK AO2 LTG DSNT ALQDS RAB03E18 P0011 T02720256
KLLQ 211815Z AUTO 13003KT 3SM VCTS -RA BR FEW016 BKN050 BKN070 27/25 A3002 RMK AO2 LTG DSNT ALQDS RAB03 P0011 T02670250
KLLQ 211812Z AUTO VRB03KT 1 1/2SM VCTS -RA BR FEW016 SCT028 BKN055 26/25 A3002 RMK AO2 LTG DSNT ALQDS RAB03 P0011 T02610250
KLLQ 211805Z AUTO 15006KT 2SM VCTS +RA BR FEW016 BKN037 OVC075 26/24 A3002 RMK AO2 LTG DSNT ALQDS RAB03 P0010 T02610239
KLLQ 211753Z AUTO 13003KT 10SM VCTS SCT016 OVC023 27/24 A3004 RMK AO2 LTG DSNT ALQDS RAB02E20 TSB01E53 SLP167 P0014 60019 T02670244 10289 20228 58005
KLLQ 211739Z AUTO 21003KT 10SM TS BKN022 OVC049 26/24 A3004 RMK AO2 LTG DSNT NE AND E RAB02E20 TSB01 P0014 T02610244
KLLQ 211719Z AUTO 00000KT 10SM -TSRA SCT016 BKN042 OVC050 26/23 A3005 RMK AO2 LTG DSNT NE AND E RAB02 TSB01 P0014 T02560228
KLLQ 211707Z AUTO 16009G24KT 1 1/2SM +TSRA SCT016 OVC044 26/21 A3005 RMK AO2 LTG DSNT NE AND E RAB02 TSB01 P0013 T02610211
KLLQ 211703Z AUTO 15017G24KT 2SM TSRA BKN016 BKN044 OVC055 27/24 A3005 RMK AO2 LTG DSNT NE AND E RAB02 TSB01 P0012 T02720239
KLLQ 211653Z AUTO 00000KT 10SM FEW016 BKN044 BKN050 28/24 A3005 RMK AO2 LTG DSNT NE-SE SLP172 T02830239
KLLQ 211603Z AUTO 24005KT 10SM SCT100 28/24 A3005 RMK AO2 LTG DSNT NE-SE T02780239
KLLQ 211553Z AUTO 27005KT 10SM VCTS FEW050 BKN100 28/24 A3005 RMK AO2 LTG DSNT NE-SE SLP173 T02780239
KLLQ 211548Z AUTO VRB05KT 10SM VCTS FEW050 BKN100 28/24 A3005 RMK AO2 LTG DSNT NE-SE
KLLQ 211453Z AUTO 22003KT 10SM SCT055 SCT090 26/24 A3005 RMK AO2 LTG DSNT NE AND E RAE1355 SLP171 P0000 60005 T02560239 53019
KLLQ 211353Z AUTO 18003KT 7SM -RA SCT055 BKN075 OVC100 24/23 A3002 RMK AO2 LTG DSNT N AND NE RAB27 SLP163 P0005 T02390233
KLLQ 211253Z AUTO 05004KT 9SM SCT065 BKN095 24/22 A3001 RMK AO2 LTG DSNT NW SLP159 T02390222
KLLQ 211153Z AUTO 15004KT 9SM FEW065 23/22 A2999 RMK AO2 SLP152 7//// T02280217 10239 20217 53018
KLLQ 211053Z AUTO 00000KT 9SM CLR 22/22 A2996 RMK AO2 SLP143 T02220217
KLLQ 210953Z AUTO 20004KT 10SM CLR 24/22 A2994 RMK AO2 SLP134 T02390222
KLLQ 210853Z AUTO 00000KT 10SM CLR 23/22 A2994 RMK AO2 SLP133 T02330217 50002
KLLQ 210753Z AUTO VRB03KT 10SM CLR 23/22 A2994 RMK AO2 SLP134 T02330222
KLLQ 210653Z AUTO 00000KT 9SM CLR 23/22 A2994 RMK AO2 SLP134 T02330222
KLLQ 210553Z AUTO 17005KT 10SM CLR 24/22 A2993 RMK AO2 SLP131 T02390222 10283 20239 403170200 50000
KLLQ 210453Z AUTO 18004KT 10SM CLR 24/23 A2994 RMK AO2 SLP133 T02440228
KLLQ 210353Z AUTO 15003KT 10SM CLR 24/23 A2994 RMK AO2 SLP133 T02440228
KLLQ 210253Z AUTO 19003KT 10SM CLR 25/23 A2993 RMK AO2 SLP131 T02500228 53013
KLLQ 210153Z AUTO 00000KT 10SM CLR 26/23 A2991 RMK AO2 SLP126 T02560233
KLLQ 210053Z AUTO 15003KT 10SM CLR 26/23 A2990 RMK AO2 SLP121 T02610233
KLLQ 202353Z AUTO 15003KT 10SM CLR 28/23 A2989 RMK AO2 SLP118 T02830228 10317 20283 53001
KLLQ 202253Z AUTO 17004KT 10SM CLR 31/22 A2989 RMK AO2 SLP116 T03060217
KLLQ 202153Z AUTO 20006KT 10SM SCT037 31/22 A2988 RMK AO2 SLP115 T03060217
KLLQ 202053Z AUTO VRB03KT 10SM FEW042 31/22 A2989 RMK AO2 SLP117 T03060217 56019